sensor_id;sensor_type;location;lat;lon;timestamp;pressure;altitude;pressure_sealevel;temperature;humidity
70976;BME280;58635;51.198;6.010;2023-10-09T00:02:08;101928.91;;;20.01;60.19
70976;BME280;58635;51.198;6.010;2023-10-09T00:04:37;101927.31;;;20.00;60.32
70976;BME280;58635;51.198;6.010;2023-10-09T00:07:03;101934.63;;;19.98;60.27
70976;BME280;58635;51.198;6.010;2023-10-09T00:09:34;101932.69;;;19.93;60.27
70976;BME280;58635;51.198;6.010;2023-10-09T00:12:16;101922.41;;;19.92;60.11
70976;BME280;58635;51.198;6.010;2023-10-09T00:14:49;101920.91;;;19.96;60.27
70976;BME280;58635;51.198;6.010;2023-10-09T00:17:21;101925.69;;;19.87;60.45
70976;BME280;58635;51.198;6.010;2023-10-09T00:19:49;101915.78;;;19.89;60.09
70976;BME280;58635;51.198;6.010;2023-10-09T00:22:25;101924.66;;;19.88;60.23
70976;BME280;58635;51.198;6.010;2023-10-09T00:24:57;101920.69;;;19.85;60.34
70976;BME280;58635;51.198;6.010;2023-10-09T00:27:40;101920.34;;;19.82;60.53
70976;BME280;58635;51.198;6.010;2023-10-09T00:30:12;101917.38;;;19.78;60.58
70976;BME280;58635;51.198;6.010;2023-10-09T00:32:41;101908.69;;;19.78;60.61
70976;BME280;58635;51.198;6.010;2023-10-09T00:35:18;101911.09;;;19.79;60.47
70976;BME280;58635;51.198;6.010;2023-10-09T00:38:03;101908.09;;;19.76;60.55
70976;BME280;58635;51.198;6.010;2023-10-09T00:40:52;101909.13;;;19.75;60.55
70976;BME280;58635;51.198;6.010;2023-10-09T00:43:34;101901.81;;;19.77;60.54
70976;BME280;58635;51.198;6.010;2023-10-09T00:46:02;101888.94;;;19.75;60.71
70976;BME280;58635;51.198;6.010;2023-10-09T00:48:59;101882.88;;;19.75;60.51
70976;BME280;58635;51.198;6.010;2023-10-09T00:51:29;101870.13;;;19.78;60.35
70976;BME280;58635;51.198;6.010;2023-10-09T00:54:02;101876.75;;;19.81;60.46
70976;BME280;58635;51.198;6.010;2023-10-09T00:56:34;101870.94;;;19.79;60.40
70976;BME280;58635;51.198;6.010;2023-10-09T00:59:10;101869.53;;;19.76;60.45
70976;BME280;58635;51.198;6.010;2023-10-09T01:01:46;101873.66;;;19.72;60.70
70976;BME280;58635;51.198;6.010;2023-10-09T01:04:30;101860.75;;;19.71;60.68
70976;BME280;58635;51.198;6.010;2023-10-09T01:07:06;101860.75;;;19.71;60.75
70976;BME280;58635;51.198;6.010;2023-10-09T01:09:43;101859.94;;;19.70;60.73
70976;BME280;58635;51.198;6.010;2023-10-09T01:12:10;101856.75;;;19.68;60.68
70976;BME280;58635;51.198;6.010;2023-10-09T01:14:43;101849.78;;;19.62;60.58
70976;BME280;58635;51.198;6.010;2023-10-09T01:17:10;101856.41;;;19.65;60.87
70976;BME280;58635;51.198;6.010;2023-10-09T01:19:55;101851.75;;;19.67;60.94
70976;BME280;58635;51.198;6.010;2023-10-09T01:22:23;101851.50;;;19.68;60.89
70976;BME280;58635;51.198;6.010;2023-10-09T01:24:49;101856.75;;;19.68;60.74
70976;BME280;58635;51.198;6.010;2023-10-09T01:27:17;101849.47;;;19.70;60.87
70976;BME280;58635;51.198;6.010;2023-10-09T01:29:43;101852.41;;;19.74;60.86
70976;BME280;58635;51.198;6.010;2023-10-09T01:32:12;101848.19;;;19.73;60.81
70976;BME280;58635;51.198;6.010;2023-10-09T01:34:46;101849.78;;;19.74;60.75
70976;BME280;58635;51.198;6.010;2023-10-09T01:37:20;101852.19;;;19.75;60.78
70976;BME280;58635;51.198;6.010;2023-10-09T01:39:56;101857.44;;;19.75;60.85
70976;BME280;58635;51.198;6.010;2023-10-09T01:42:46;101869.19;;;19.73;60.67
70976;BME280;58635;51.198;6.010;2023-10-09T01:45:13;101860.28;;;19.74;60.81
70976;BME280;58635;51.198;6.010;2023-10-09T01:47:39;101869.75;;;19.75;60.99
70976;BME280;58635;51.198;6.010;2023-10-09T01:50:07;101880.25;;;19.75;60.90
70976;BME280;58635;51.198;6.010;2023-10-09T01:52:39;101874.44;;;19.73;60.59
70976;BME280;58635;51.198;6.010;2023-10-09T01:55:06;101875.38;;;19.78;60.81
70976;BME280;58635;51.198;6.010;2023-10-09T01:57:52;101880.97;;;19.82;60.77
70976;BME280;58635;51.198;6.010;2023-10-09T02:00:19;101872.63;;;19.85;60.78
70976;BME280;58635;51.198;6.010;2023-10-09T02:02:49;101860.06;;;19.87;60.61
70976;BME280;58635;51.198;6.010;2023-10-09T02:05:16;101864.75;;;19.85;60.72
70976;BME280;58635;51.198;6.010;2023-10-09T02:07:43;101872.63;;;19.85;60.75
70976;BME280;58635;51.198;6.010;2023-10-09T02:10:20;101868.97;;;19.86;60.55
70976;BME280;58635;51.198;6.010;2023-10-09T02:12:56;101870.94;;;19.91;60.80
70976;BME280;58635;51.198;6.010;2023-10-09T02:15:30;101865.44;;;19.92;60.43
70976;BME280;58635;51.198;6.010;2023-10-09T02:18:10;101855.72;;;19.93;60.84
70976;BME280;58635;51.198;6.010;2023-10-09T02:20:50;101858.38;;;19.93;60.67
70976;BME280;58635;51.198;6.010;2023-10-09T02:23:29;101852.06;;;19.94;60.64
70976;BME280;58635;51.198;6.010;2023-10-09T02:26:13;101864.97;;;19.95;60.41
70976;BME280;58635;51.198;6.010;2023-10-09T02:28:45;101859.50;;;19.97;60.42
70976;BME280;58635;51.198;6.010;2023-10-09T02:31:18;101858.69;;;19.96;60.66
70976;BME280;58635;51.198;6.010;2023-10-09T02:33:48;101854.25;;;19.97;60.60
70976;BME280;58635;51.198;6.010;2023-10-09T02:36:20;101850.59;;;19.98;60.42
70976;BME280;58635;51.198;6.010;2023-10-09T02:38:46;101842.47;;;19.99;60.43
70976;BME280;58635;51.198;6.010;2023-10-09T02:41:15;101841.66;;;19.99;60.50
70976;BME280;58635;51.198;6.010;2023-10-09T02:43:41;101841.66;;;19.99;60.21
70976;BME280;58635;51.198;6.010;2023-10-09T02:46:12;101846.13;;;19.98;60.63
70976;BME280;58635;51.198;6.010;2023-10-09T02:48:45;101841.09;;;19.97;60.50
70976;BME280;58635;51.198;6.010;2023-10-09T02:51:20;101839.75;;;19.94;60.69
70976;BME280;58635;51.198;6.010;2023-10-09T02:53:53;101839.75;;;19.94;60.52
70976;BME280;58635;51.198;6.010;2023-10-09T02:56:20;101844.44;;;19.92;60.09
70976;BME280;58635;51.198;6.010;2023-10-09T02:59:09;101841.56;;;19.94;60.62
70976;BME280;58635;51.198;6.010;2023-10-09T03:01:38;101839.50;;;19.96;60.50
70976;BME280;58635;51.198;6.010;2023-10-09T03:04:05;101834.72;;;19.93;60.78
70976;BME280;58635;51.198;6.010;2023-10-09T03:06:32;101843.41;;;19.93;60.68
70976;BME280;58635;51.198;6.010;2023-10-09T03:09:01;101839.97;;;19.93;60.45
70976;BME280;58635;51.198;6.010;2023-10-09T03:11:47;101846.50;;;19.90;60.87
70976;BME280;58635;51.198;6.010;2023-10-09T03:14:22;101839.28;;;19.85;60.90
70976;BME280;58635;51.198;6.010;2023-10-09T03:16:53;101840.00;;;19.81;60.88
70976;BME280;58635;51.198;6.010;2023-10-09T03:19:19;101834.16;;;19.79;60.90
70976;BME280;58635;51.198;6.010;2023-10-09T03:21:45;101825.69;;;19.77;60.63
70976;BME280;58635;51.198;6.010;2023-10-09T03:24:12;101810.78;;;19.77;60.71
70976;BME280;58635;51.198;6.010;2023-10-09T03:26:39;101802.66;;;19.79;60.99
70976;BME280;58635;51.198;6.010;2023-10-09T03:29:05;101796.94;;;19.82;60.74
70976;BME280;58635;51.198;6.010;2023-10-09T03:31:37;101797.50;;;19.84;60.75
70976;BME280;58635;51.198;6.010;2023-10-09T03:34:04;101803.56;;;19.84;60.54
70976;BME280;58635;51.198;6.010;2023-10-09T03:36:31;101812.69;;;19.82;60.87
70976;BME280;58635;51.198;6.010;2023-10-09T03:39:04;101813.97;;;19.79;60.83
70976;BME280;58635;51.198;6.010;2023-10-09T03:41:44;101815.00;;;19.78;61.02
70976;BME280;58635;51.198;6.010;2023-10-09T03:44:14;101823.31;;;19.75;60.83
70976;BME280;58635;51.198;6.010;2023-10-09T03:46:42;101817.50;;;19.73;61.00
70976;BME280;58635;51.198;6.010;2023-10-09T03:49:10;101822.97;;;19.72;61.20
70976;BME280;58635;51.198;6.010;2023-10-09T03:51:37;101835.53;;;19.70;60.89
70976;BME280;58635;51.198;6.010;2023-10-09T03:54:03;101830.50;;;19.68;61.17
70976;BME280;58635;51.198;6.010;2023-10-09T03:56:34;101815.19;;;19.65;61.15
70976;BME280;58635;51.198;6.010;2023-10-09T03:59:01;101824.34;;;19.63;61.00
70976;BME280;58635;51.198;6.010;2023-10-09T04:01:31;101819.66;;;19.65;60.83
70976;BME280;58635;51.198;6.010;2023-10-09T04:04:07;101814.41;;;19.65;61.23
70976;BME280;58635;51.198;6.010;2023-10-09T04:06:36;101814.41;;;19.65;60.96
70976;BME280;58635;51.198;6.010;2023-10-09T04:09:05;101807.31;;;19.65;61.04
70976;BME280;58635;51.198;6.010;2023-10-09T04:11:45;101811.78;;;19.65;61.05
70976;BME280;58635;51.198;6.010;2023-10-09T04:14:16;101811.56;;;19.66;60.78
70976;BME280;58635;51.198;6.010;2023-10-09T04:16:59;101811.78;;;19.65;60.87
70976;BME280;58635;51.198;6.010;2023-10-09T04:19:49;101810.41;;;19.62;60.89
70976;BME280;58635;51.198;6.010;2023-10-09T04:22:39;101810.41;;;19.62;61.19
70976;BME280;58635;51.198;6.010;2023-10-09T04:25:08;101795.38;;;19.58;61.22
70976;BME280;58635;51.198;6.010;2023-10-09T04:27:41;101792.75;;;19.58;61.10
70976;BME280;58635;51.198;6.010;2023-10-09T04:30:08;101794.66;;;19.62;60.94
70976;BME280;58635;51.198;6.010;2023-10-09T04:32:41;101788.97;;;19.65;60.89
70976;BME280;58635;51.198;6.010;2023-10-09T04:35:11;101783.28;;;19.68;60.82
70976;BME280;58635;51.198;6.010;2023-10-09T04:37:50;101784.31;;;19.67;61.05
70976;BME280;58635;51.198;6.010;2023-10-09T04:40:29;101786.34;;;19.65;61.07
70976;BME280;58635;51.198;6.010;2023-10-09T04:43:16;101791.00;;;19.63;60.96
70976;BME280;58635;51.198;6.010;2023-10-09T04:45:48;101786.00;;;19.62;60.93
70976;BME280;58635;51.198;6.010;2023-10-09T04:48:35;101795.69;;;19.61;61.03
70976;BME280;58635;51.198;6.010;2023-10-09T04:51:07;101787.03;;;19.61;61.00
70976;BME280;58635;51.198;6.010;2023-10-09T04:53:52;101780.41;;;19.58;60.93
70976;BME280;58635;51.198;6.010;2023-10-09T04:56:41;101787.25;;;19.59;61.20
70976;BME280;58635;51.198;6.010;2023-10-09T04:59:20;101781.78;;;19.61;61.24
70976;BME280;58635;51.198;6.010;2023-10-09T05:01:51;101773.09;;;19.60;61.19
70976;BME280;58635;51.198;6.010;2023-10-09T05:04:25;101776.53;;;19.61;61.23
70976;BME280;58635;51.198;6.010;2023-10-09T05:07:03;101778.34;;;19.60;61.29
70976;BME280;58635;51.198;6.010;2023-10-09T05:09:49;101775.41;;;19.56;61.25
70976;BME280;58635;51.198;6.010;2023-10-09T05:12:23;101792.19;;;19.55;61.10
70976;BME280;58635;51.198;6.010;2023-10-09T05:14:53;101793.19;;;19.54;61.31
70976;BME280;58635;51.198;6.010;2023-10-09T05:17:35;101799.66;;;19.52;61.35
70976;BME280;58635;51.198;6.010;2023-10-09T05:20:05;101799.66;;;19.52;61.35
70976;BME280;58635;51.198;6.010;2023-10-09T05:23:00;101816.44;;;19.51;60.93
70976;BME280;58635;51.198;6.010;2023-10-09T05:25:47;101816.19;;;19.52;61.26
70976;BME280;58635;51.198;6.010;2023-10-09T05:28:19;101798.84;;;19.51;61.07
70976;BME280;58635;51.198;6.010;2023-10-09T05:30:58;101811.53;;;19.54;61.23
70976;BME280;58635;51.198;6.010;2023-10-09T05:33:53;101795.19;;;19.52;60.81
70976;BME280;58635;51.198;6.010;2023-10-09T05:36:27;101804.91;;;19.52;61.42
70976;BME280;58635;51.198;6.010;2023-10-09T05:38:53;101801.72;;;19.50;61.51
70976;BME280;58635;51.198;6.010;2023-10-09T05:41:44;101817.00;;;19.53;61.58
70976;BME280;58635;51.198;6.010;2023-10-09T05:44:25;101829.13;;;19.54;61.15
70976;BME280;58635;51.198;6.010;2023-10-09T05:47:10;101825.91;;;19.52;61.22
70976;BME280;58635;51.198;6.010;2023-10-09T05:49:57;101813.69;;;19.46;61.48
70976;BME280;58635;51.198;6.010;2023-10-09T05:52:44;101820.06;;;19.50;61.42
70976;BME280;58635;51.198;6.010;2023-10-09T05:55:19;101815.63;;;19.50;61.22
70976;BME280;58635;51.198;6.010;2023-10-09T05:57:55;101813.25;;;19.49;61.46
70976;BME280;58635;51.198;6.010;2023-10-09T06:00:22;101823.28;;;19.52;61.56
70976;BME280;58635;51.198;6.010;2023-10-09T06:03:07;101826.13;;;19.50;61.32
70976;BME280;58635;51.198;6.010;2023-10-09T06:06:03;101839.00;;;19.52;61.26
70976;BME280;58635;51.198;6.010;2023-10-09T06:08:31;101823.66;;;19.55;61.42
70976;BME280;58635;51.198;6.010;2023-10-09T06:11:11;101836.31;;;19.59;61.25
70976;BME280;58635;51.198;6.010;2023-10-09T06:14:00;101845.00;;;19.59;61.33
70976;BME280;58635;51.198;6.010;2023-10-09T06:16:30;101849.56;;;19.64;61.08
70976;BME280;58635;51.198;6.010;2023-10-09T06:19:12;101850.16;;;19.66;61.14
70976;BME280;58635;51.198;6.010;2023-10-09T06:21:55;101861.22;;;19.68;61.13
70976;BME280;58635;51.198;6.010;2023-10-09T06:24:41;101868.41;;;19.72;61.13
70976;BME280;58635;51.198;6.010;2023-10-09T06:27:11;101871.16;;;19.77;60.91
70976;BME280;58635;51.198;6.010;2023-10-09T06:29:40;101873.66;;;19.84;60.79
70976;BME280;58635;51.198;6.010;2023-10-09T06:32:11;101866.91;;;19.88;60.69
70976;BME280;58635;51.198;6.010;2023-10-09T06:34:48;101870.69;;;19.92;60.68
70976;BME280;58635;51.198;6.010;2023-10-09T06:37:19;101880.41;;;19.92;60.58
70976;BME280;58635;51.198;6.010;2023-10-09T06:39:45;101907.78;;;19.96;60.48
70976;BME280;58635;51.198;6.010;2023-10-09T06:42:24;101895.00;;;19.99;60.40
70976;BME280;58635;51.198;6.010;2023-10-09T06:45:04;101896.16;;;20.03;60.51
70976;BME280;58635;51.198;6.010;2023-10-09T06:47:35;101898.53;;;20.05;60.47
70976;BME280;58635;51.198;6.010;2023-10-09T06:50:11;101897.75;;;20.04;60.52
70976;BME280;58635;51.198;6.010;2023-10-09T06:52:47;101907.00;;;20.07;60.52
70976;BME280;58635;51.198;6.010;2023-10-09T06:55:36;101890.19;;;20.08;60.38
70976;BME280;58635;51.198;6.010;2023-10-09T06:58:21;101892.03;;;20.07;60.35
70976;BME280;58635;51.198;6.010;2023-10-09T07:00:55;101880.72;;;20.07;60.15
70976;BME280;58635;51.198;6.010;2023-10-09T07:03:28;101875.81;;;20.10;60.34
70976;BME280;58635;51.198;6.010;2023-10-09T07:06:06;101877.88;;;20.08;60.27
70976;BME280;58635;51.198;6.010;2023-10-09T07:08:36;101878.09;;;20.07;60.26
70976;BME280;58635;51.198;6.010;2023-10-09T07:11:19;101872.06;;;20.06;60.26
70976;BME280;58635;51.198;6.010;2023-10-09T07:14:20;101864.50;;;20.10;60.31
70976;BME280;58635;51.198;6.010;2023-10-09T07:19:43;101863.69;;;20.09;60.06
70976;BME280;58635;51.198;6.010;2023-10-09T07:22:10;101871.59;;;20.09;60.28
70976;BME280;58635;51.198;6.010;2023-10-09T07:24:52;101865.84;;;20.12;59.96
70976;BME280;58635;51.198;6.010;2023-10-09T07:27:23;101872.50;;;20.15;60.12
70976;BME280;58635;51.198;6.010;2023-10-09T07:30:10;101881.19;;;20.15;60.25
70976;BME280;58635;51.198;6.010;2023-10-09T07:33:01;101884.94;;;20.20;59.88
70976;BME280;58635;51.198;6.010;2023-10-09T07:35:51;101869.50;;;20.23;59.75
70976;BME280;58635;51.198;6.010;2023-10-09T07:38:21;101874.31;;;20.26;59.77
70976;BME280;58635;51.198;6.010;2023-10-09T07:41:02;101868.59;;;20.29;59.66
70976;BME280;58635;51.198;6.010;2023-10-09T07:43:31;101860.25;;;20.32;59.46
70976;BME280;58635;51.198;6.010;2023-10-09T07:46:15;101866.53;;;20.31;59.51
70976;BME280;58635;51.198;6.010;2023-10-09T07:49:01;101861.28;;;20.31;59.56
70976;BME280;58635;51.198;6.010;2023-10-09T07:51:35;101863.19;;;20.36;59.65
70976;BME280;58635;51.198;6.010;2023-10-09T07:54:02;101851.56;;;20.43;59.51
70976;BME280;58635;51.198;6.010;2023-10-09T07:56:39;101845.16;;;20.51;59.43
70976;BME280;58635;51.198;6.010;2023-10-09T07:59:13;101827.63;;;20.57;59.07
70976;BME280;58635;51.198;6.010;2023-10-09T08:01:41;101828.88;;;20.66;59.06
70976;BME280;58635;51.198;6.010;2023-10-09T08:04:22;101840.25;;;20.71;58.75
70976;BME280;58635;51.198;6.010;2023-10-09T08:07:04;101847.69;;;20.75;58.74
70976;BME280;58635;51.198;6.010;2023-10-09T08:09:34;101861.66;;;20.75;58.89
70976;BME280;58635;51.198;6.010;2023-10-09T08:12:13;101872.63;;;20.72;58.84
70976;BME280;58635;51.198;6.010;2023-10-09T08:14:43;101872.41;;;20.73;58.88
70976;BME280;58635;51.198;6.010;2023-10-09T08:17:09;101886.00;;;20.70;58.58
70976;BME280;58635;51.198;6.010;2023-10-09T08:19:46;101908.97;;;20.75;58.50
70976;BME280;58635;51.198;6.010;2023-10-09T08:22:37;101894.63;;;20.83;58.46
70976;BME280;58635;51.198;6.010;2023-10-09T08:25:10;101893.47;;;20.90;58.22
70976;BME280;58635;51.198;6.010;2023-10-09T08:27:53;101886.50;;;20.96;57.96
70976;BME280;58635;51.198;6.010;2023-10-09T08:30:21;101889.75;;;21.03;58.10
70976;BME280;58635;51.198;6.010;2023-10-09T08:32:49;101882.59;;;20.98;57.69
70976;BME280;58635;51.198;6.010;2023-10-09T08:35:54;101880.34;;;21.07;57.85
70976;BME280;58635;51.198;6.010;2023-10-09T08:38:34;101875.91;;;21.08;57.79
70976;BME280;58635;51.198;6.010;2023-10-09T08:41:08;101877.81;;;21.12;57.78
70976;BME280;58635;51.198;6.010;2023-10-09T08:43:51;101872.81;;;21.11;57.79
70976;BME280;58635;51.198;6.010;2023-10-09T08:46:24;101880.47;;;21.12;57.58
70976;BME280;58635;51.198;6.010;2023-10-09T08:48:54;101885.47;;;21.14;57.68
70976;BME280;58635;51.198;6.010;2023-10-09T08:51:23;101892.09;;;21.16;57.69
70976;BME280;58635;51.198;6.010;2023-10-09T08:53:50;101901.56;;;21.17;57.44
70976;BME280;58635;51.198;6.010;2023-10-09T08:56:20;101900.19;;;21.26;57.49
70976;BME280;58635;51.198;6.010;2023-10-09T08:58:55;101897.09;;;21.29;57.20
70976;BME280;58635;51.198;6.010;2023-10-09T09:01:22;101905.63;;;21.37;57.00
70976;BME280;58635;51.198;6.010;2023-10-09T09:03:52;101898.41;;;21.44;56.74
70976;BME280;58635;51.198;6.010;2023-10-09T09:06:22;101890.56;;;21.49;56.83
70976;BME280;58635;51.198;6.010;2023-10-09T09:08:50;101879.91;;;21.55;56.48
70976;BME280;58635;51.198;6.010;2023-10-09T09:11:21;101879.91;;;21.55;56.48
70976;BME280;58635;51.198;6.010;2023-10-09T09:16:25;101866.56;;;21.62;56.39
70976;BME280;58635;51.198;6.010;2023-10-09T09:19:07;101861.38;;;21.67;56.46
70976;BME280;58635;51.198;6.010;2023-10-09T09:21:35;101848.03;;;21.74;56.37
70976;BME280;58635;51.198;6.010;2023-10-09T09:24:08;101859.19;;;21.81;55.95
70976;BME280;58635;51.198;6.010;2023-10-09T09:27:04;101865.09;;;21.88;55.82
70976;BME280;58635;51.198;6.010;2023-10-09T09:29:40;101855.91;;;21.91;55.81
70976;BME280;58635;51.198;6.010;2023-10-09T09:32:09;101850.97;;;21.94;55.68
70976;BME280;58635;51.198;6.010;2023-10-09T09:34:44;101847.09;;;22.02;55.51
70976;BME280;58635;51.198;6.010;2023-10-09T09:37:23;101846.63;;;22.05;55.20
70976;BME280;58635;51.198;6.010;2023-10-09T09:40:01;101851.56;;;22.18;55.08
70976;BME280;58635;51.198;6.010;2023-10-09T09:42:28;101851.63;;;22.23;55.18
70976;BME280;58635;51.198;6.010;2023-10-09T09:44:59;101842.50;;;22.31;54.99
70976;BME280;58635;51.198;6.010;2023-10-09T09:47:26;101842.63;;;22.41;54.95
70976;BME280;58635;51.198;6.010;2023-10-09T09:49:54;101840.81;;;22.46;54.48
70976;BME280;58635;51.198;6.010;2023-10-09T09:52:29;101839.84;;;22.53;54.24
70976;BME280;58635;51.198;6.010;2023-10-09T09:54:56;101835.66;;;22.57;54.25
70976;BME280;58635;51.198;6.010;2023-10-09T09:57:24;101839.16;;;22.62;53.68
70976;BME280;58635;51.198;6.010;2023-10-09T09:59:58;101840.00;;;22.68;53.91
70976;BME280;58635;51.198;6.010;2023-10-09T10:02:31;101854.34;;;22.77;53.72
70976;BME280;58635;51.198;6.010;2023-10-09T10:05:04;101853.44;;;22.88;53.22
70976;BME280;58635;51.198;6.010;2023-10-09T10:07:34;101859.06;;;22.97;53.09
70976;BME280;58635;51.198;6.010;2023-10-09T10:10:34;101857.78;;;23.04;52.82
70976;BME280;58635;51.198;6.010;2023-10-09T10:13:00;101856.81;;;23.11;53.01
70976;BME280;58635;51.198;6.010;2023-10-09T10:18:30;101864.31;;;23.24;52.85
70976;BME280;58635;51.198;6.010;2023-10-09T10:23:40;101860.94;;;23.33;51.75
70976;BME280;58635;51.198;6.010;2023-10-09T10:26:20;101875.75;;;23.40;51.80
70976;BME280;58635;51.198;6.010;2023-10-09T10:29:18;101869.50;;;23.46;51.80
70976;BME280;58635;51.198;6.010;2023-10-09T10:32:00;101872.69;;;23.53;51.21
70976;BME280;58635;51.198;6.010;2023-10-09T10:37:36;101886.28;;;23.67;51.24
70976;BME280;58635;51.198;6.010;2023-10-09T10:40:24;101888.19;;;23.71;51.15
70976;BME280;58635;51.198;6.010;2023-10-09T10:43:16;101894.03;;;23.78;51.38
70976;BME280;58635;51.198;6.010;2023-10-09T10:46:05;101901.22;;;23.83;51.04
70976;BME280;58635;51.198;6.010;2023-10-09T10:48:35;101903.13;;;23.92;51.04
70976;BME280;58635;51.198;6.010;2023-10-09T10:51:04;101898.13;;;24.01;51.32
70976;BME280;58635;51.198;6.010;2023-10-09T10:53:31;101895.03;;;24.14;50.69
70976;BME280;58635;51.198;6.010;2023-10-09T10:56:18;101900.38;;;24.25;50.48
70976;BME280;58635;51.198;6.010;2023-10-09T10:58:52;101901.22;;;24.35;50.26
70976;BME280;58635;51.198;6.010;2023-10-09T11:01:32;101901.28;;;24.45;50.11
70976;BME280;58635;51.198;6.010;2023-10-09T11:04:23;101894.13;;;24.46;49.67
70976;BME280;58635;51.198;6.010;2023-10-09T11:06:56;101898.63;;;24.45;49.53
70976;BME280;58635;51.198;6.010;2023-10-09T11:09:49;101902.34;;;24.44;50.22
70976;BME280;58635;51.198;6.010;2023-10-09T11:15:09;101905.56;;;24.62;49.24
70976;BME280;58635;51.198;6.010;2023-10-09T11:18:04;101901.34;;;24.71;48.89
70976;BME280;58635;51.198;6.010;2023-10-09T11:20:55;101894.50;;;24.75;48.91
70976;BME280;58635;51.198;6.010;2023-10-09T11:23:29;101891.59;;;24.82;48.86
70976;BME280;58635;51.198;6.010;2023-10-09T11:26:03;101901.94;;;24.88;48.55
70976;BME280;58635;51.198;6.010;2023-10-09T11:29:11;101897.97;;;24.96;48.93
70976;BME280;58635;51.198;6.010;2023-10-09T11:32:02;101892.66;;;24.96;48.70
70976;BME280;58635;51.198;6.010;2023-10-09T11:34:33;101898.25;;;24.99;48.36
70976;BME280;58635;51.198;6.010;2023-10-09T11:37:14;101880.81;;;25.03;48.11
70976;BME280;58635;51.198;6.010;2023-10-09T11:39:59;101877.09;;;25.04;48.32
70976;BME280;58635;51.198;6.010;2023-10-09T11:42:28;101883.72;;;25.07;48.24
70976;BME280;58635;51.198;6.010;2023-10-09T11:45:24;101886.91;;;25.04;47.96
70976;BME280;58635;51.198;6.010;2023-10-09T11:47:56;101874.47;;;25.04;48.10
70976;BME280;58635;51.198;6.010;2023-10-09T11:53:19;101867.03;;;25.06;48.22
70976;BME280;58635;51.198;6.010;2023-10-09T11:55:49;101871.28;;;25.13;48.18
70976;BME280;58635;51.198;6.010;2023-10-09T11:58:16;101871.53;;;25.21;48.23
70976;BME280;58635;51.198;6.010;2023-10-09T12:00:52;101870.75;;;25.31;47.79
70976;BME280;58635;51.198;6.010;2023-10-09T12:03:24;101866.25;;;25.42;47.91
70976;BME280;58635;51.198;6.010;2023-10-09T12:05:58;101864.66;;;25.46;47.65
70976;BME280;58635;51.198;6.010;2023-10-09T12:08:34;101851.66;;;25.44;47.75
70976;BME280;58635;51.198;6.010;2023-10-09T12:11:03;101847.97;;;25.50;47.49
70976;BME280;58635;51.198;6.010;2023-10-09T12:13:29;101856.44;;;25.52;47.40
70976;BME280;58635;51.198;6.010;2023-10-09T12:15:56;101856.72;;;25.51;47.71
70976;BME280;58635;51.198;6.010;2023-10-09T12:18:24;101866.50;;;25.50;47.61
70976;BME280;58635;51.198;6.010;2023-10-09T12:20:51;101860.16;;;25.51;47.73
70976;BME280;58635;51.198;6.010;2023-10-09T12:23:22;101859.59;;;25.54;47.41
70976;BME280;58635;51.198;6.010;2023-10-09T12:25:50;101855.63;;;25.52;47.34
70976;BME280;58635;51.198;6.010;2023-10-09T12:28:17;101850.88;;;25.54;47.62
70976;BME280;58635;51.198;6.010;2023-10-09T12:30:47;101847.44;;;25.58;47.72
70976;BME280;58635;51.198;6.010;2023-10-09T12:33:17;101841.31;;;25.63;47.49
70976;BME280;58635;51.198;6.010;2023-10-09T12:35:46;101850.56;;;25.65;47.17
70976;BME280;58635;51.198;6.010;2023-10-09T12:38:13;101850.03;;;25.69;47.36
70976;BME280;58635;51.198;6.010;2023-10-09T12:40:45;101855.91;;;25.71;47.46
70976;BME280;58635;51.198;6.010;2023-10-09T12:43:18;101853.78;;;25.73;47.45
70976;BME280;58635;51.198;6.010;2023-10-09T12:45:46;101858.25;;;25.77;47.31
70976;BME280;58635;51.198;6.010;2023-10-09T12:48:12;101859.06;;;25.78;47.39
70976;BME280;58635;51.198;6.010;2023-10-09T12:50:40;101858.50;;;25.81;47.53
70976;BME280;58635;51.198;6.010;2023-10-09T12:53:13;101858.50;;;25.81;47.39
70976;BME280;58635;51.198;6.010;2023-10-09T12:55:43;101858.00;;;25.79;47.06
70976;BME280;58635;51.198;6.010;2023-10-09T12:58:11;101849.53;;;25.77;46.97
70976;BME280;58635;51.198;6.010;2023-10-09T13:00:42;101860.66;;;25.79;46.91
70976;BME280;58635;51.198;6.010;2023-10-09T13:03:18;101857.19;;;25.78;46.86
70976;BME280;58635;51.198;6.010;2023-10-09T13:05:52;101860.66;;;25.79;46.86
70976;BME280;58635;51.198;6.010;2023-10-09T13:08:20;101853.75;;;25.78;47.08
70976;BME280;58635;51.198;6.010;2023-10-09T13:10:51;101860.91;;;25.82;46.84
70976;BME280;58635;51.198;6.010;2023-10-09T13:13:28;101861.44;;;25.84;46.89
70976;BME280;58635;51.198;6.010;2023-10-09T13:16:19;101848.72;;;25.86;47.04
70976;BME280;58635;51.198;6.010;2023-10-09T13:18:57;101850.56;;;25.86;47.06
70976;BME280;58635;51.198;6.010;2023-10-09T13:21:27;101851.63;;;25.80;46.79
70976;BME280;58635;51.198;6.010;2023-10-09T13:23:58;101858.78;;;25.79;46.86
70976;BME280;58635;51.198;6.010;2023-10-09T13:26:26;101852.69;;;25.79;47.01
70976;BME280;58635;51.198;6.010;2023-10-09T13:29:02;101852.97;;;25.77;46.94
70976;BME280;58635;51.198;6.010;2023-10-09T13:31:29;101851.09;;;25.78;47.37
70976;BME280;58635;51.198;6.010;2023-10-09T13:34:00;101847.66;;;25.77;47.32
70976;BME280;58635;51.198;6.010;2023-10-09T13:36:27;101854.56;;;25.73;47.49
70976;BME280;58635;51.198;6.010;2023-10-09T13:39:05;101844.53;;;25.70;47.53
70976;BME280;58635;51.198;6.010;2023-10-09T13:41:57;101843.97;;;25.63;47.63
70976;BME280;58635;51.198;6.010;2023-10-09T13:44:34;101851.94;;;25.58;47.79
70976;BME280;58635;51.198;6.010;2023-10-09T13:47:04;101844.25;;;25.51;47.62
70976;BME280;58635;51.198;6.010;2023-10-09T13:49:31;101843.22;;;25.47;48.04
70976;BME280;58635;51.198;6.010;2023-10-09T13:51:59;101845.84;;;25.42;47.90